sensor_id;sensor_type;location;lat;lon;timestamp;pressure;altitude;pressure_sealevel;temperature;humidity
44351;BME280;62766;62.622;17.912;2022-11-24T00:00:52;101520.09;;;-1.47;63.74
44351;BME280;62766;62.622;17.912;2022-11-24T00:03:21;101512.99;;;-1.50;63.79
44351;BME280;62766;62.622;17.912;2022-11-24T00:05:49;101509.70;;;-1.30;63.75
44351;BME280;62766;62.622;17.912;2022-11-24T00:08:18;101505.51;;;-1.46;63.82
44351;BME280;62766;62.622;17.912;2022-11-24T00:10:46;101504.82;;;-1.28;63.66
44351;BME280;62766;62.622;17.912;2022-11-24T00:13:15;101508.91;;;-1.35;63.60
44351;BME280;62766;62.622;17.912;2022-11-24T00:15:44;101514.36;;;-1.41;63.63
44351;BME280;62766;62.622;17.912;2022-11-24T00:18:12;101517.32;;;-1.35;63.62
44351;BME280;62766;62.622;17.912;2022-11-24T00:20:41;101518.25;;;-1.35;63.37
44351;BME280;62766;62.622;17.912;2022-11-24T00:23:09;101520.04;;;-1.36;63.40
44351;BME280;62766;62.622;17.912;2022-11-24T00:25:38;101515.00;;;-1.32;63.43
44351;BME280;62766;62.622;17.912;2022-11-24T00:28:06;101515.69;;;-1.32;63.44
44351;BME280;62766;62.622;17.912;2022-11-24T00:30:35;101516.44;;;-1.20;63.42
44351;BME280;62766;62.622;17.912;2022-11-24T00:33:03;101516.51;;;-1.16;63.42
44351;BME280;62766;62.622;17.912;2022-11-24T00:35:32;101512.37;;;-1.13;63.44
44351;BME280;62766;62.622;17.912;2022-11-24T00:38:00;101511.40;;;-1.16;63.36
44351;BME280;62766;62.622;17.912;2022-11-24T00:40:30;101512.73;;;-1.12;63.48
44351;BME280;62766;62.622;17.912;2022-11-24T00:42:58;101515.40;;;-0.97;63.49
44351;BME280;62766;62.622;17.912;2022-11-24T00:45:27;101515.39;;;-1.01;63.44
44351;BME280;62766;62.622;17.912;2022-11-24T00:47:56;101511.20;;;-1.09;63.37
44351;BME280;62766;62.622;17.912;2022-11-24T00:50:24;101511.51;;;-1.05;63.28
44351;BME280;62766;62.622;17.912;2022-11-24T00:52:53;101514.21;;;-1.05;63.18
44351;BME280;62766;62.622;17.912;2022-11-24T00:55:22;101513.88;;;-1.02;63.24
44351;BME280;62766;62.622;17.912;2022-11-24T00:57:52;101517.91;;;-1.07;63.13
44351;BME280;62766;62.622;17.912;2022-11-24T01:00:20;101514.26;;;-1.19;63.14
44351;BME280;62766;62.622;17.912;2022-11-24T01:02:49;101517.38;;;-1.19;63.20
44351;BME280;62766;62.622;17.912;2022-11-24T01:05:18;101517.44;;;-1.09;63.31
44351;BME280;62766;62.622;17.912;2022-11-24T01:07:47;101516.61;;;-1.24;63.13
44351;BME280;62766;62.622;17.912;2022-11-24T01:10:16;101517.34;;;-1.30;63.12
44351;BME280;62766;62.622;17.912;2022-11-24T01:12:44;101521.47;;;-1.40;63.21
44351;BME280;62766;62.622;17.912;2022-11-24T01:15:12;101520.50;;;-1.25;63.17
44351;BME280;62766;62.622;17.912;2022-11-24T01:17:41;101522.07;;;-1.19;62.92
44351;BME280;62766;62.622;17.912;2022-11-24T01:20:11;101525.02;;;-1.23;62.93
44351;BME280;62766;62.622;17.912;2022-11-24T01:22:40;101531.45;;;-1.21;63.05
44351;BME280;62766;62.622;17.912;2022-11-24T01:25:10;101531.79;;;-1.36;63.03
44351;BME280;62766;62.622;17.912;2022-11-24T01:27:39;101529.46;;;-1.21;62.92
44351;BME280;62766;62.622;17.912;2022-11-24T01:30:09;101533.27;;;-1.30;62.93
44351;BME280;62766;62.622;17.912;2022-11-24T01:32:38;101529.60;;;-1.33;62.90
44351;BME280;62766;62.622;17.912;2022-11-24T01:35:08;101526.26;;;-1.35;62.99
44351;BME280;62766;62.622;17.912;2022-11-24T01:37:35;101523.34;;;-1.43;63.23
44351;BME280;62766;62.622;17.912;2022-11-24T01:40:05;101521.85;;;-1.54;63.34
44351;BME280;62766;62.622;17.912;2022-11-24T01:42:39;101526.08;;;-1.67;63.54
44351;BME280;62766;62.622;17.912;2022-11-24T01:45:30;101532.67;;;-1.77;63.94
44351;BME280;62766;62.622;17.912;2022-11-24T01:48:02;101527.48;;;-1.67;64.02
44351;BME280;62766;62.622;17.912;2022-11-24T01:50:34;101526.45;;;-1.61;64.02
44351;BME280;62766;62.622;17.912;2022-11-24T01:53:04;101526.79;;;-1.73;64.10
44351;BME280;62766;62.622;17.912;2022-11-24T01:55:36;101524.82;;;-1.60;63.94
44351;BME280;62766;62.622;17.912;2022-11-24T01:58:08;101519.28;;;-1.44;63.56
44351;BME280;62766;62.622;17.912;2022-11-24T02:00:41;101518.78;;;-1.54;63.44
44351;BME280;62766;62.622;17.912;2022-11-24T02:03:16;101520.86;;;-1.59;63.61
44351;BME280;62766;62.622;17.912;2022-11-24T02:05:52;101522.86;;;-1.49;63.56
44351;BME280;62766;62.622;17.912;2022-11-24T02:08:31;101522.35;;;-1.51;63.46
44351;BME280;62766;62.622;17.912;2022-11-24T02:11:03;101520.94;;;-1.54;63.38
44351;BME280;62766;62.622;17.912;2022-11-24T02:13:33;101521.31;;;-1.53;63.62
44351;BME280;62766;62.622;17.912;2022-11-24T02:16:04;101520.09;;;-1.40;63.63
44351;BME280;62766;62.622;17.912;2022-11-24T02:18:35;101516.46;;;-1.43;63.27
44351;BME280;62766;62.622;17.912;2022-11-24T02:21:05;101516.90;;;-1.56;63.11
44351;BME280;62766;62.622;17.912;2022-11-24T02:23:41;101522.07;;;-1.35;63.14
44351;BME280;62766;62.622;17.912;2022-11-24T02:28:49;101518.76;;;-1.39;62.73
44351;BME280;62766;62.622;17.912;2022-11-24T02:31:17;101525.44;;;-1.49;62.88
44351;BME280;62766;62.622;17.912;2022-11-24T02:33:46;101527.89;;;-1.50;63.05
44351;BME280;62766;62.622;17.912;2022-11-24T02:36:15;101530.60;;;-1.56;63.15
44351;BME280;62766;62.622;17.912;2022-11-24T02:38:44;101527.25;;;-1.47;63.17
44351;BME280;62766;62.622;17.912;2022-11-24T02:41:15;101526.54;;;-1.51;63.10
44351;BME280;62766;62.622;17.912;2022-11-24T02:43:47;101527.70;;;-1.46;63.01
44351;BME280;62766;62.622;17.912;2022-11-24T02:46:16;101532.52;;;-1.42;62.99
44351;BME280;62766;62.622;17.912;2022-11-24T02:48:45;101529.40;;;-1.43;62.83
44351;BME280;62766;62.622;17.912;2022-11-24T02:51:14;101529.54;;;-1.27;62.88
44351;BME280;62766;62.622;17.912;2022-11-24T02:53:42;101530.05;;;-1.31;62.85
44351;BME280;62766;62.622;17.912;2022-11-24T02:56:10;101529.34;;;-1.24;62.88
44351;BME280;62766;62.622;17.912;2022-11-24T02:58:39;101531.98;;;-1.36;62.80
44351;BME280;62766;62.622;17.912;2022-11-24T03:01:07;101521.52;;;-1.25;62.68
44351;BME280;62766;62.622;17.912;2022-11-24T03:03:36;101531.26;;;-1.24;62.83
44351;BME280;62766;62.622;17.912;2022-11-24T03:06:05;101525.95;;;-1.13;62.85
44351;BME280;62766;62.622;17.912;2022-11-24T03:08:33;101531.98;;;-1.20;62.67
44351;BME280;62766;62.622;17.912;2022-11-24T03:11:02;101533.57;;;-1.19;62.66
44351;BME280;62766;62.622;17.912;2022-11-24T03:13:30;101534.16;;;-1.24;62.86
44351;BME280;62766;62.622;17.912;2022-11-24T03:15:59;101537.01;;;-1.24;63.01
44351;BME280;62766;62.622;17.912;2022-11-24T03:18:27;101537.46;;;-1.31;63.02
44351;BME280;62766;62.622;17.912;2022-11-24T03:20:58;101543.03;;;-1.52;63.18
44351;BME280;62766;62.622;17.912;2022-11-24T03:23:26;101539.98;;;-1.60;63.51
44351;BME280;62766;62.622;17.912;2022-11-24T03:25:54;101538.59;;;-1.45;63.62
44351;BME280;62766;62.622;17.912;2022-11-24T03:28:33;101534.58;;;-1.51;63.69
44351;BME280;62766;62.622;17.912;2022-11-24T03:31:02;101531.63;;;-1.53;63.78
44351;BME280;62766;62.622;17.912;2022-11-24T03:33:30;101529.98;;;-1.67;63.76
44351;BME280;62766;62.622;17.912;2022-11-24T03:35:59;101526.84;;;-1.59;64.00
44351;BME280;62766;62.622;17.912;2022-11-24T03:38:27;101524.20;;;-1.57;63.92
44351;BME280;62766;62.622;17.912;2022-11-24T03:40:56;101526.48;;;-1.53;63.82
44351;BME280;62766;62.622;17.912;2022-11-24T03:43:25;101524.29;;;-1.59;63.98
44351;BME280;62766;62.622;17.912;2022-11-24T03:45:53;101528.53;;;-1.56;64.15
44351;BME280;62766;62.622;17.912;2022-11-24T03:48:22;101526.49;;;-1.59;64.29
44351;BME280;62766;62.622;17.912;2022-11-24T03:50:53;101529.91;;;-1.57;64.27
44351;BME280;62766;62.622;17.912;2022-11-24T03:53:25;101526.34;;;-1.50;64.24
44351;BME280;62766;62.622;17.912;2022-11-24T03:55:54;101524.53;;;-1.55;64.33
44351;BME280;62766;62.622;17.912;2022-11-24T03:58:24;101530.49;;;-1.68;64.51
44351;BME280;62766;62.622;17.912;2022-11-24T04:00:53;101536.06;;;-1.56;64.72
44351;BME280;62766;62.622;17.912;2022-11-24T04:03:22;101534.25;;;-1.55;64.73
44351;BME280;62766;62.622;17.912;2022-11-24T04:05:52;101532.44;;;-1.58;64.52
44351;BME280;62766;62.622;17.912;2022-11-24T04:08:20;101534.96;;;-1.59;64.62
44351;BME280;62766;62.622;17.912;2022-11-24T04:10:51;101534.95;;;-1.66;64.71
44351;BME280;62766;62.622;17.912;2022-11-24T04:13:21;101532.68;;;-1.64;64.88
44351;BME280;62766;62.622;17.912;2022-11-24T04:15:51;101532.83;;;-1.65;64.88
44351;BME280;62766;62.622;17.912;2022-11-24T04:18:20;101535.44;;;-1.64;64.87
44351;BME280;62766;62.622;17.912;2022-11-24T04:20:48;101534.30;;;-1.64;64.87
44351;BME280;62766;62.622;17.912;2022-11-24T04:23:17;101530.23;;;-1.58;64.93
44351;BME280;62766;62.622;17.912;2022-11-24T04:25:45;101531.50;;;-1.73;65.02
44351;BME280;62766;62.622;17.912;2022-11-24T04:28:14;101532.49;;;-1.65;65.02
44351;BME280;62766;62.622;17.912;2022-11-24T04:30:42;101534.26;;;-1.72;65.04
44351;BME280;62766;62.622;17.912;2022-11-24T04:33:11;101533.20;;;-1.72;65.23
44351;BME280;62766;62.622;17.912;2022-11-24T04:35:39;101530.28;;;-1.84;65.39
44351;BME280;62766;62.622;17.912;2022-11-24T04:38:08;101533.65;;;-1.84;65.57
44351;BME280;62766;62.622;17.912;2022-11-24T04:40:36;101538.69;;;-1.77;65.38
44351;BME280;62766;62.622;17.912;2022-11-24T04:43:05;101538.10;;;-1.87;65.32
44351;BME280;62766;62.622;17.912;2022-11-24T04:45:33;101537.94;;;-1.72;65.42
44351;BME280;62766;62.622;17.912;2022-11-24T04:48:02;101541.93;;;-1.82;65.45
44351;BME280;62766;62.622;17.912;2022-11-24T04:50:30;101546.22;;;-1.78;65.39
44351;BME280;62766;62.622;17.912;2022-11-24T04:52:59;101546.50;;;-1.72;65.48
44351;BME280;62766;62.622;17.912;2022-11-24T04:55:27;101546.48;;;-1.67;65.41
44351;BME280;62766;62.622;17.912;2022-11-24T04:57:56;101545.70;;;-1.63;65.36
44351;BME280;62766;62.622;17.912;2022-11-24T05:03:18;101539.69;;;-1.63;65.38
44351;BME280;62766;62.622;17.912;2022-11-24T05:05:47;101541.47;;;-1.68;65.33
44351;BME280;62766;62.622;17.912;2022-11-24T05:08:15;101543.48;;;-1.77;65.37
44351;BME280;62766;62.622;17.912;2022-11-24T05:10:44;101544.12;;;-1.60;65.26
44351;BME280;62766;62.622;17.912;2022-11-24T05:13:12;101548.83;;;-1.64;65.14
44351;BME280;62766;62.622;17.912;2022-11-24T05:15:42;101551.15;;;-1.54;65.17
44351;BME280;62766;62.622;17.912;2022-11-24T05:18:13;101552.70;;;-1.44;65.07
44351;BME280;62766;62.622;17.912;2022-11-24T05:20:42;101552.78;;;-1.40;65.00
44351;BME280;62766;62.622;17.912;2022-11-24T05:23:11;101552.35;;;-1.34;64.62
44351;BME280;62766;62.622;17.912;2022-11-24T05:25:41;101551.90;;;-1.31;64.34
44351;BME280;62766;62.622;17.912;2022-11-24T05:28:10;101551.47;;;-1.41;64.51
44351;BME280;62766;62.622;17.912;2022-11-24T05:30:40;101556.46;;;-1.37;64.61
44351;BME280;62766;62.622;17.912;2022-11-24T05:33:12;101557.16;;;-1.33;64.63
44351;BME280;62766;62.622;17.912;2022-11-24T05:35:42;101557.39;;;-1.49;64.81
44351;BME280;62766;62.622;17.912;2022-11-24T05:38:10;101556.47;;;-1.25;64.86
44351;BME280;62766;62.622;17.912;2022-11-24T05:40:39;101553.62;;;-1.31;64.79
44351;BME280;62766;62.622;17.912;2022-11-24T05:43:09;101552.78;;;-1.31;64.65
44351;BME280;62766;62.622;17.912;2022-11-24T05:45:37;101550.68;;;-1.39;64.70
44351;BME280;62766;62.622;17.912;2022-11-24T05:48:07;101547.77;;;-1.30;64.82
44351;BME280;62766;62.622;17.912;2022-11-24T05:50:36;101550.58;;;-1.25;64.92
44351;BME280;62766;62.622;17.912;2022-11-24T05:53:06;101548.34;;;-1.19;64.85
44351;BME280;62766;62.622;17.912;2022-11-24T05:55:35;101552.95;;;-1.22;64.77
44351;BME280;62766;62.622;17.912;2022-11-24T05:58:07;101551.26;;;-1.08;64.60
44351;BME280;62766;62.622;17.912;2022-11-24T06:00:36;101550.47;;;-1.19;64.46
44351;BME280;62766;62.622;17.912;2022-11-24T06:03:04;101552.24;;;-1.23;64.48
44351;BME280;62766;62.622;17.912;2022-11-24T06:05:32;101556.59;;;-1.25;64.66
44351;BME280;62766;62.622;17.912;2022-11-24T06:08:01;101559.20;;;-1.24;64.60
44351;BME280;62766;62.622;17.912;2022-11-24T06:10:30;101556.77;;;-1.29;65.01
44351;BME280;62766;62.622;17.912;2022-11-24T06:12:58;101563.16;;;-1.40;65.48
44351;BME280;62766;62.622;17.912;2022-11-24T06:15:26;101559.84;;;-1.30;65.54
44351;BME280;62766;62.622;17.912;2022-11-24T06:17:55;101561.36;;;-1.40;65.83
44351;BME280;62766;62.622;17.912;2022-11-24T06:20:24;101560.92;;;-1.30;65.90
44351;BME280;62766;62.622;17.912;2022-11-24T06:22:52;101558.53;;;-1.19;65.78
44351;BME280;62766;62.622;17.912;2022-11-24T06:25:21;101557.05;;;-1.23;65.50
44351;BME280;62766;62.622;17.912;2022-11-24T06:27:49;101557.27;;;-1.35;65.69
44351;BME280;62766;62.622;17.912;2022-11-24T06:30:18;101559.65;;;-1.49;66.06
44351;BME280;62766;62.622;17.912;2022-11-24T06:32:46;101563.25;;;-1.37;66.30
44351;BME280;62766;62.622;17.912;2022-11-24T06:35:15;101563.19;;;-1.53;66.52
44351;BME280;62766;62.622;17.912;2022-11-24T06:37:43;101566.71;;;-1.56;66.87
44351;BME280;62766;62.622;17.912;2022-11-24T06:40:12;101570.35;;;-1.38;66.88
44351;BME280;62766;62.622;17.912;2022-11-24T06:42:42;101573.68;;;-1.27;66.76
44351;BME280;62766;62.622;17.912;2022-11-24T06:45:10;101567.67;;;-1.26;66.32
44351;BME280;62766;62.622;17.912;2022-11-24T06:47:40;101566.69;;;-1.29;66.35
44351;BME280;62766;62.622;17.912;2022-11-24T06:50:09;101566.06;;;-1.26;66.37
44351;BME280;62766;62.622;17.912;2022-11-24T06:52:38;101563.10;;;-1.21;66.36
44351;BME280;62766;62.622;17.912;2022-11-24T06:55:07;101560.46;;;-1.21;66.60
44351;BME280;62766;62.622;17.912;2022-11-24T06:57:35;101564.87;;;-1.18;66.50
44351;BME280;62766;62.622;17.912;2022-11-24T07:00:05;101565.73;;;-0.97;66.31
44351;BME280;62766;62.622;17.912;2022-11-24T07:02:34;101565.65;;;-1.08;66.29
44351;BME280;62766;62.622;17.912;2022-11-24T07:05:03;101559.00;;;-1.15;66.16
44351;BME280;62766;62.622;17.912;2022-11-24T07:07:31;101557.48;;;-1.10;66.44
44351;BME280;62766;62.622;17.912;2022-11-24T07:09:59;101561.61;;;-1.24;66.74
44351;BME280;62766;62.622;17.912;2022-11-24T07:12:32;101560.49;;;-1.32;67.00
44351;BME280;62766;62.622;17.912;2022-11-24T07:15:00;101562.13;;;-1.23;67.22
44351;BME280;62766;62.622;17.912;2022-11-24T07:17:29;101559.46;;;-1.27;67.62
44351;BME280;62766;62.622;17.912;2022-11-24T07:19:58;101566.46;;;-1.23;67.99
44351;BME280;62766;62.622;17.912;2022-11-24T07:22:26;101568.99;;;-1.35;68.23
44351;BME280;62766;62.622;17.912;2022-11-24T07:24:55;101574.42;;;-1.43;68.68
44351;BME280;62766;62.622;17.912;2022-11-24T07:27:24;101574.29;;;-1.32;69.05
44351;BME280;62766;62.622;17.912;2022-11-24T07:29:54;101575.67;;;-1.28;69.21
44351;BME280;62766;62.622;17.912;2022-11-24T07:32:22;101578.98;;;-1.19;69.38
44351;BME280;62766;62.622;17.912;2022-11-24T07:34:51;101579.76;;;-1.27;69.48
44351;BME280;62766;62.622;17.912;2022-11-24T07:37:19;101580.83;;;-1.17;69.23
44351;BME280;62766;62.622;17.912;2022-11-24T07:39:48;101586.56;;;-1.13;69.51
44351;BME280;62766;62.622;17.912;2022-11-24T07:42:16;101585.15;;;-1.31;69.77
44351;BME280;62766;62.622;17.912;2022-11-24T07:44:45;101587.35;;;-1.21;70.00
44351;BME280;62766;62.622;17.912;2022-11-24T07:47:13;101584.74;;;-1.24;70.15
44351;BME280;62766;62.622;17.912;2022-11-24T07:49:42;101583.47;;;-1.18;70.36
44351;BME280;62766;62.622;17.912;2022-11-24T07:52:10;101584.53;;;-1.06;70.73
44351;BME280;62766;62.622;17.912;2022-11-24T07:54:40;101582.95;;;-1.11;70.84
44351;BME280;62766;62.622;17.912;2022-11-24T07:57:09;101575.61;;;-1.03;70.85
44351;BME280;62766;62.622;17.912;2022-11-24T07:59:38;101571.13;;;-1.03;70.66
44351;BME280;62766;62.622;17.912;2022-11-24T08:02:08;101570.91;;;-1.04;70.71
44351;BME280;62766;62.622;17.912;2022-11-24T08:04:37;101570.68;;;-1.06;70.72
44351;BME280;62766;62.622;17.912;2022-11-24T08:07:05;101571.25;;;-0.97;70.52
44351;BME280;62766;62.622;17.912;2022-11-24T08:09:34;101574.17;;;-0.90;70.77
44351;BME280;62766;62.622;17.912;2022-11-24T08:12:02;101577.47;;;-0.86;70.71
44351;BME280;62766;62.622;17.912;2022-11-24T08:14:31;101574.26;;;-0.84;70.84
44351;BME280;62766;62.622;17.912;2022-11-24T08:16:59;101572.56;;;-0.73;70.88
44351;BME280;62766;62.622;17.912;2022-11-24T08:19:28;101572.55;;;-0.70;70.75
44351;BME280;62766;62.622;17.912;2022-11-24T08:21:56;101573.67;;;-0.61;70.52
44351;BME280;62766;62.622;17.912;2022-11-24T08:24:26;101572.07;;;-0.48;70.37
44351;BME280;62766;62.622;17.912;2022-11-24T08:26:55;101579.05;;;-0.26;70.29
44351;BME280;62766;62.622;17.912;2022-11-24T08:29:26;101578.93;;;-0.26;70.93
44351;BME280;62766;62.622;17.912;2022-11-24T08:31:56;101581.07;;;-0.05;71.99
44351;BME280;62766;62.622;17.912;2022-11-24T08:34:24;101584.51;;;-0.11;72.24
44351;BME280;62766;62.622;17.912;2022-11-24T08:36:52;101588.39;;;0.07;71.82
44351;BME280;62766;62.622;17.912;2022-11-24T08:39:21;101590.17;;;0.19;71.44
44351;BME280;62766;62.622;17.912;2022-11-24T08:41:49;101593.30;;;0.26;70.88
44351;BME280;62766;62.622;17.912;2022-11-24T08:44:18;101601.21;;;0.42;70.46
44351;BME280;62766;62.622;17.912;2022-11-24T08:46:46;101600.65;;;0.42;70.15
44351;BME280;62766;62.622;17.912;2022-11-24T08:49:15;101603.21;;;0.40;70.50
44351;BME280;62766;62.622;17.912;2022-11-24T08:51:43;101602.72;;;0.56;70.83
44351;BME280;62766;62.622;17.912;2022-11-24T08:54:12;101602.47;;;0.49;71.20
44351;BME280;62766;62.622;17.912;2022-11-24T08:56:41;101600.78;;;0.63;70.52
44351;BME280;62766;62.622;17.912;2022-11-24T08:59:11;101599.00;;;0.72;70.48
44351;BME280;62766;62.622;17.912;2022-11-24T09:01:40;101599.96;;;0.64;70.33
44351;BME280;62766;62.622;17.912;2022-11-24T09:04:09;101601.76;;;0.66;70.21
44351;BME280;62766;62.622;17.912;2022-11-24T09:06:38;101598.96;;;0.76;70.25
44351;BME280;62766;62.622;17.912;2022-11-24T09:09:08;101601.70;;;0.88;70.23
44351;BME280;62766;62.622;17.912;2022-11-24T09:11:36;101605.11;;;0.87;70.32
44351;BME280;62766;62.622;17.912;2022-11-24T09:14:05;101606.95;;;0.92;70.38
44351;BME280;62766;62.622;17.912;2022-11-24T09:16:33;101607.79;;;1.00;70.27
44351;BME280;62766;62.622;17.912;2022-11-24T09:19:03;101614.11;;;1.09;70.15
44351;BME280;62766;62.622;17.912;2022-11-24T09:21:33;101618.79;;;1.22;69.89
44351;BME280;62766;62.622;17.912;2022-11-24T09:24:03;101620.85;;;1.22;69.52
44351;BME280;62766;62.622;17.912;2022-11-24T09:26:34;101619.91;;;1.22;68.73
44351;BME280;62766;62.622;17.912;2022-11-24T09:29:04;101617.87;;;1.31;68.49
44351;BME280;62766;62.622;17.912;2022-11-24T09:31:35;101617.18;;;1.27;68.44
44351;BME280;62766;62.622;17.912;2022-11-24T09:34:07;101615.62;;;1.40;68.26
44351;BME280;62766;62.622;17.912;2022-11-24T09:36:35;101617.96;;;1.36;68.48
44351;BME280;62766;62.622;17.912;2022-11-24T09:39:03;101620.14;;;1.27;68.96
44351;BME280;62766;62.622;17.912;2022-11-24T09:41:38;101622.04;;;1.37;68.94
44351;BME280;62766;62.622;17.912;2022-11-24T09:44:29;101618.88;;;1.31;69.38
44351;BME280;62766;62.622;17.912;2022-11-24T09:47:10;101617.58;;;1.38;69.70
44351;BME280;62766;62.622;17.912;2022-11-24T09:49:45;101624.41;;;1.33;70.04
44351;BME280;62766;62.622;17.912;2022-11-24T09:52:21;101620.90;;;1.32;70.17
44351;BME280;62766;62.622;17.912;2022-11-24T09:54:56;101626.14;;;1.34;69.93
44351;BME280;62766;62.622;17.912;2022-11-24T09:57:28;101623.22;;;1.26;70.09
44351;BME280;62766;62.622;17.912;2022-11-24T10:00:03;101622.63;;;1.35;70.10
44351;BME280;62766;62.622;17.912;2022-11-24T10:02:34;101619.78;;;1.30;70.45
44351;BME280;62766;62.622;17.912;2022-11-24T10:05:04;101616.88;;;1.33;70.61
44351;BME280;62766;62.622;17.912;2022-11-24T10:07:43;101613.05;;;1.34;70.74
44351;BME280;62766;62.622;17.912;2022-11-24T10:10:16;101614.81;;;1.22;70.76
44351;BME280;62766;62.622;17.912;2022-11-24T10:12:57;101612.71;;;1.26;71.16
44351;BME280;62766;62.622;17.912;2022-11-24T10:15:36;101609.94;;;1.22;71.12
44351;BME280;62766;62.622;17.912;2022-11-24T10:18:17;101611.34;;;1.30;71.30
44351;BME280;62766;62.622;17.912;2022-11-24T10:20:57;101617.55;;;1.25;71.34
44351;BME280;62766;62.622;17.912;2022-11-24T10:23:52;101616.41;;;1.31;71.28
44351;BME280;62766;62.622;17.912;2022-11-24T10:26:31;101615.09;;;1.55;70.81
44351;BME280;62766;62.622;17.912;2022-11-24T10:29:14;101612.59;;;1.39;70.32
44351;BME280;62766;62.622;17.912;2022-11-24T10:31:51;101612.63;;;1.52;70.22
44351;BME280;62766;62.622;17.912;2022-11-24T10:34:26;101610.10;;;1.45;70.24
44351;BME280;62766;62.622;17.912;2022-11-24T10:36:59;101610.99;;;1.43;70.47
44351;BME280;62766;62.622;17.912;2022-11-24T10:39:34;101612.98;;;1.44;70.51
44351;BME280;62766;62.622;17.912;2022-11-24T10:42:10;101616.57;;;1.46;70.37
44351;BME280;62766;62.622;17.912;2022-11-24T10:44:42;101618.13;;;1.47;70.33
44351;BME280;62766;62.622;17.912;2022-11-24T10:47:17;101617.33;;;1.47;70.26
44351;BME280;62766;62.622;17.912;2022-11-24T10:49:51;101619.39;;;1.37;70.32
44351;BME280;62766;62.622;17.912;2022-11-24T10:52:23;101619.95;;;1.47;70.52
44351;BME280;62766;62.622;17.912;2022-11-24T10:54:53;101621.46;;;1.43;70.46
44351;BME280;62766;62.622;17.912;2022-11-24T10:57:29;101616.42;;;1.48;70.04
44351;BME280;62766;62.622;17.912;2022-11-24T10:59:58;101610.43;;;1.43;69.82
44351;BME280;62766;62.622;17.912;2022-11-24T11:05:24;101612.59;;;1.31;70.40
44351;BME280;62766;62.622;17.912;2022-11-24T11:08:17;101615.03;;;1.32;70.27
44351;BME280;62766;62.622;17.912;2022-11-24T11:13:50;101619.53;;;1.25;71.36
44351;BME280;62766;62.622;17.912;2022-11-24T11:16:26;101620.14;;;1.38;71.31
44351;BME280;62766;62.622;17.912;2022-11-24T11:18:57;101619.69;;;1.32;71.46
44351;BME280;62766;62.622;17.912;2022-11-24T11:21:32;101616.40;;;1.37;71.16
44351;BME280;62766;62.622;17.912;2022-11-24T11:24:03;101615.06;;;1.23;70.91
44351;BME280;62766;62.622;17.912;2022-11-24T11:26:35;101615.81;;;1.37;70.67
44351;BME280;62766;62.622;17.912;2022-11-24T11:29:15;101619.14;;;1.28;70.70
44351;BME280;62766;62.622;17.912;2022-11-24T11:31:56;101621.07;;;1.22;70.64
44351;BME280;62766;62.622;17.912;2022-11-24T11:34:27;101619.03;;;1.27;70.75
44351;BME280;62766;62.622;17.912;2022-11-24T11:36:58;101616.04;;;1.30;70.64
44351;BME280;62766;62.622;17.912;2022-11-24T11:39:29;101617.59;;;1.35;71.15
44351;BME280;62766;62.622;17.912;2022-11-24T11:42:09;101620.38;;;1.44;71.09
44351;BME280;62766;62.622;17.912;2022-11-24T11:44:44;101621.35;;;1.31;71.08
44351;BME280;62766;62.622;17.912;2022-11-24T11:47:20;101619.78;;;1.18;71.05
44351;BME280;62766;62.622;17.912;2022-11-24T11:49:50;101622.99;;;1.31;71.23
44351;BME280;62766;62.622;17.912;2022-11-24T11:52:38;101621.35;;;1.28;70.61
44351;BME280;62766;62.622;17.912;2022-11-24T11:55:32;101622.52;;;1.18;70.47
44351;BME280;62766;62.622;17.912;2022-11-24T11:58:16;101623.87;;;1.25;70.40
44351;BME280;62766;62.622;17.912;2022-11-24T12:00:53;101622.22;;;1.31;70.24
44351;BME280;62766;62.622;17.912;2022-11-24T12:03:37;101624.73;;;1.20;70.05
44351;BME280;62766;62.622;17.912;2022-11-24T12:06:20;101623.74;;;1.20;70.27
44351;BME280;62766;62.622;17.912;2022-11-24T12:11:50;101624.11;;;1.19;70.35
44351;BME280;62766;62.622;17.912;2022-11-24T12:14:29;101621.55;;;1.13;70.59
44351;BME280;62766;62.622;17.912;2022-11-24T12:17:05;101623.09;;;1.08;70.61
44351;BME280;62766;62.622;17.912;2022-11-24T12:19:47;101626.56;;;1.22;70.65
44351;BME280;62766;62.622;17.912;2022-11-24T12:22:25;101627.61;;;1.04;71.16
44351;BME280;62766;62.622;17.912;2022-11-24T12:25:14;101626.77;;;1.04;71.65
44351;BME280;62766;62.622;17.912;2022-11-24T12:27:55;101624.73;;;1.04;71.68
44351;BME280;62766;62.622;17.912;2022-11-24T12:30:32;101619.07;;;1.25;71.48
44351;BME280;62766;62.622;17.912;2022-11-24T12:33:15;101624.69;;;1.22;71.45
44351;BME280;62766;62.622;17.912;2022-11-24T12:35:49;101622.21;;;1.26;71.30
44351;BME280;62766;62.622;17.912;2022-11-24T12:38:30;101626.79;;;1.21;71.09
44351;BME280;62766;62.622;17.912;2022-11-24T12:41:18;101624.88;;;1.29;70.90
44351;BME280;62766;62.622;17.912;2022-11-24T12:43:51;101629.94;;;1.43;71.10
44351;BME280;62766;62.622;17.912;2022-11-24T12:46:30;101628.27;;;1.36;71.09
44351;BME280;62766;62.622;17.912;2022-11-24T12:49:14;101622.10;;;1.48;70.87
44351;BME280;62766;62.622;17.912;2022-11-24T12:51:50;101623.24;;;1.48;70.54
44351;BME280;62766;62.622;17.912;2022-11-24T12:54:22;101623.76;;;1.48;70.25
44351;BME280;62766;62.622;17.912;2022-11-24T12:56:56;101622.49;;;1.51;69.81
44351;BME280;62766;62.622;17.912;2022-11-24T12:59:33;101625.49;;;1.56;69.52
44351;BME280;62766;62.622;17.912;2022-11-24T13:02:15;101625.53;;;1.52;69.39
44351;BME280;62766;62.622;17.912;2022-11-24T13:04:53;101629.34;;;1.66;69.38
44351;BME280;62766;62.622;17.912;2022-11-24T13:07:37;101630.81;;;1.68;69.35
44351;BME280;62766;62.622;17.912;2022-11-24T13:10:39;101632.20;;;1.87;69.13
44351;BME280;62766;62.622;17.912;2022-11-24T13:13:09;101633.64;;;1.77;68.59
44351;BME280;62766;62.622;17.912;2022-11-24T13:16:13;101634.49;;;1.86;68.29
44351;BME280;62766;62.622;17.912;2022-11-24T13:18:45;101634.37;;;1.66;68.12